sensor_id;sensor_type;location;lat;lon;timestamp;temperature;humidity
61398;DHT22;47267;48.130;-2.040;2023-05-10T00:01:46;20.50;60.60
61398;DHT22;47267;48.130;-2.040;2023-05-10T00:04:12;20.50;60.70
61398;DHT22;47267;48.130;-2.040;2023-05-10T00:06:37;20.50;60.70
61398;DHT22;47267;48.130;-2.040;2023-05-10T00:09:03;20.50;60.60
61398;DHT22;47267;48.130;-2.040;2023-05-10T00:11:29;20.50;60.60
61398;DHT22;47267;48.130;-2.040;2023-05-10T00:13:55;20.40;60.60
61398;DHT22;47267;48.130;-2.040;2023-05-10T00:16:20;20.40;60.60
61398;DHT22;47267;48.130;-2.040;2023-05-10T00:18:46;20.40;60.60
61398;DHT22;47267;48.130;-2.040;2023-05-10T00:21:12;20.40;60.60
61398;DHT22;47267;48.130;-2.040;2023-05-10T00:23:37;20.40;60.60
61398;DHT22;47267;48.130;-2.040;2023-05-10T00:26:03;20.40;60.60
61398;DHT22;47267;48.130;-2.040;2023-05-10T00:28:29;20.40;60.60
61398;DHT22;47267;48.130;-2.040;2023-05-10T00:30:54;20.40;60.60
61398;DHT22;47267;48.130;-2.040;2023-05-10T00:33:21;20.30;60.50
61398;DHT22;47267;48.130;-2.040;2023-05-10T00:35:46;20.30;60.50
61398;DHT22;47267;48.130;-2.040;2023-05-10T00:38:12;20.30;60.50
61398;DHT22;47267;48.130;-2.040;2023-05-10T00:40:38;20.30;60.50
61398;DHT22;47267;48.130;-2.040;2023-05-10T00:43:04;20.30;60.50
61398;DHT22;47267;48.130;-2.040;2023-05-10T00:45:35;20.30;60.50
61398;DHT22;47267;48.130;-2.040;2023-05-10T00:48:02;20.30;60.50
61398;DHT22;47267;48.130;-2.040;2023-05-10T00:50:28;20.30;61.10
61398;DHT22;47267;48.130;-2.040;2023-05-10T00:52:54;20.30;60.50
61398;DHT22;47267;48.130;-2.040;2023-05-10T00:55:20;20.30;60.50
61398;DHT22;47267;48.130;-2.040;2023-05-10T00:57:47;20.30;60.50
61398;DHT22;47267;48.130;-2.040;2023-05-10T01:00:13;20.30;60.50
61398;DHT22;47267;48.130;-2.040;2023-05-10T01:02:44;20.20;60.30
61398;DHT22;47267;48.130;-2.040;2023-05-10T01:05:10;20.20;60.40
61398;DHT22;47267;48.130;-2.040;2023-05-10T01:07:35;20.20;60.30
61398;DHT22;47267;48.130;-2.040;2023-05-10T01:10:01;20.20;60.30
61398;DHT22;47267;48.130;-2.040;2023-05-10T01:12:27;20.20;60.30
61398;DHT22;47267;48.130;-2.040;2023-05-10T01:14:53;20.20;60.30
61398;DHT22;47267;48.130;-2.040;2023-05-10T01:17:20;20.20;60.30
61398;DHT22;47267;48.130;-2.040;2023-05-10T01:19:46;20.20;60.30
61398;DHT22;47267;48.130;-2.040;2023-05-10T01:25:37;20.20;60.30
61398;DHT22;47267;48.130;-2.040;2023-05-10T01:36:54;20.10;60.20
61398;DHT22;47267;48.130;-2.040;2023-05-10T01:39:16;20.10;60.20
61398;DHT22;47267;48.130;-2.040;2023-05-10T01:47:42;20.10;60.20
61398;DHT22;47267;48.130;-2.040;2023-05-10T01:50:18;20.00;60.10
61398;DHT22;47267;48.130;-2.040;2023-05-10T01:52:49;20.00;60.10
61398;DHT22;47267;48.130;-2.040;2023-05-10T01:55:18;20.00;60.10
61398;DHT22;47267;48.130;-2.040;2023-05-10T01:57:46;20.00;60.10
61398;DHT22;47267;48.130;-2.040;2023-05-10T02:00:14;20.00;60.10
61398;DHT22;47267;48.130;-2.040;2023-05-10T02:02:44;20.00;60.10
61398;DHT22;47267;48.130;-2.040;2023-05-10T02:05:12;20.00;60.10
61398;DHT22;47267;48.130;-2.040;2023-05-10T02:07:39;19.90;60.00
61398;DHT22;47267;48.130;-2.040;2023-05-10T02:10:07;20.00;60.10
61398;DHT22;47267;48.130;-2.040;2023-05-10T02:12:39;19.90;60.00
61398;DHT22;47267;48.130;-2.040;2023-05-10T02:15:07;20.00;60.00
61398;DHT22;47267;48.130;-2.040;2023-05-10T02:17:35;19.90;60.00
61398;DHT22;47267;48.130;-2.040;2023-05-10T02:20:03;19.90;60.00
61398;DHT22;47267;48.130;-2.040;2023-05-10T02:22:30;19.90;60.00
61398;DHT22;47267;48.130;-2.040;2023-05-10T02:24:58;19.90;60.00
61398;DHT22;47267;48.130;-2.040;2023-05-10T02:27:25;19.90;60.00
61398;DHT22;47267;48.130;-2.040;2023-05-10T02:29:51;19.90;60.00
61398;DHT22;47267;48.130;-2.040;2023-05-10T02:32:19;19.80;60.00
61398;DHT22;47267;48.130;-2.040;2023-05-10T02:34:46;19.90;60.00
61398;DHT22;47267;48.130;-2.040;2023-05-10T02:37:18;19.80;59.90
61398;DHT22;47267;48.130;-2.040;2023-05-10T02:39:49;19.80;59.90
61398;DHT22;47267;48.130;-2.040;2023-05-10T02:42:20;19.80;59.90
61398;DHT22;47267;48.130;-2.040;2023-05-10T02:44:48;19.80;59.90
61398;DHT22;47267;48.130;-2.040;2023-05-10T02:47:16;19.80;59.90
61398;DHT22;47267;48.130;-2.040;2023-05-10T02:49:42;19.80;59.90
61398;DHT22;47267;48.130;-2.040;2023-05-10T02:52:08;19.80;59.90
61398;DHT22;47267;48.130;-2.040;2023-05-10T02:54:43;19.80;59.90
61398;DHT22;47267;48.130;-2.040;2023-05-10T02:57:11;19.70;59.80
61398;DHT22;47267;48.130;-2.040;2023-05-10T02:59:40;19.70;59.80
61398;DHT22;47267;48.130;-2.040;2023-05-10T03:02:08;19.70;59.80
61398;DHT22;47267;48.130;-2.040;2023-05-10T03:04:34;19.70;59.80
61398;DHT22;47267;48.130;-2.040;2023-05-10T03:07:01;19.70;59.80
61398;DHT22;47267;48.130;-2.040;2023-05-10T03:09:26;19.70;59.80
61398;DHT22;47267;48.130;-2.040;2023-05-10T03:12:11;19.60;59.70
61398;DHT22;47267;48.130;-2.040;2023-05-10T03:18:01;19.60;59.70
61398;DHT22;47267;48.130;-2.040;2023-05-10T03:20:36;19.60;59.70
61398;DHT22;47267;48.130;-2.040;2023-05-10T03:25:43;19.60;59.70
61398;DHT22;47267;48.130;-2.040;2023-05-10T03:28:09;19.60;59.70
61398;DHT22;47267;48.130;-2.040;2023-05-10T03:30:35;19.60;59.70
61398;DHT22;47267;48.130;-2.040;2023-05-10T03:33:05;19.60;59.70
61398;DHT22;47267;48.130;-2.040;2023-05-10T03:35:31;19.60;59.70
61398;DHT22;47267;48.130;-2.040;2023-05-10T03:37:57;19.60;59.70
61398;DHT22;47267;48.130;-2.040;2023-05-10T03:40:24;19.60;59.70
61398;DHT22;47267;48.130;-2.040;2023-05-10T03:42:50;19.60;59.70
61398;DHT22;47267;48.130;-2.040;2023-05-10T03:45:15;19.50;59.60
61398;DHT22;47267;48.130;-2.040;2023-05-10T03:47:41;19.50;59.60
61398;DHT22;47267;48.130;-2.040;2023-05-10T03:50:07;19.50;59.60
61398;DHT22;47267;48.130;-2.040;2023-05-10T03:52:33;19.50;59.60
61398;DHT22;47267;48.130;-2.040;2023-05-10T03:54:58;19.50;59.60
61398;DHT22;47267;48.130;-2.040;2023-05-10T03:57:24;19.50;59.60
61398;DHT22;47267;48.130;-2.040;2023-05-10T03:59:50;19.50;59.60
61398;DHT22;47267;48.130;-2.040;2023-05-10T04:02:15;19.50;59.60
61398;DHT22;47267;48.130;-2.040;2023-05-10T04:04:41;19.40;59.50
61398;DHT22;47267;48.130;-2.040;2023-05-10T04:07:07;19.40;59.60
61398;DHT22;47267;48.130;-2.040;2023-05-10T04:09:33;19.40;59.60
61398;DHT22;47267;48.130;-2.040;2023-05-10T04:11:59;19.40;59.60
61398;DHT22;47267;48.130;-2.040;2023-05-10T04:14:25;19.40;59.60
61398;DHT22;47267;48.130;-2.040;2023-05-10T04:16:51;19.40;59.60
61398;DHT22;47267;48.130;-2.040;2023-05-10T04:19:16;19.40;59.60
61398;DHT22;47267;48.130;-2.040;2023-05-10T04:21:42;19.40;59.60
61398;DHT22;47267;48.130;-2.040;2023-05-10T04:24:08;19.40;59.50
61398;DHT22;47267;48.130;-2.040;2023-05-10T04:26:33;19.40;59.50
61398;DHT22;47267;48.130;-2.040;2023-05-10T04:28:59;19.40;59.60
61398;DHT22;47267;48.130;-2.040;2023-05-10T04:31:25;19.30;59.50
61398;DHT22;47267;48.130;-2.040;2023-05-10T04:33:51;19.30;59.50
61398;DHT22;47267;48.130;-2.040;2023-05-10T04:36:17;19.30;59.50
61398;DHT22;47267;48.130;-2.040;2023-05-10T04:38:43;19.30;59.50
61398;DHT22;47267;48.130;-2.040;2023-05-10T04:41:10;19.30;59.50
61398;DHT22;47267;48.130;-2.040;2023-05-10T04:43:36;19.30;59.50
61398;DHT22;47267;48.130;-2.040;2023-05-10T04:46:03;19.30;59.50
61398;DHT22;47267;48.130;-2.040;2023-05-10T04:48:29;19.30;59.50
61398;DHT22;47267;48.130;-2.040;2023-05-10T04:50:54;19.30;59.50
61398;DHT22;47267;48.130;-2.040;2023-05-10T04:53:20;19.30;59.50
61398;DHT22;47267;48.130;-2.040;2023-05-10T04:55:46;19.20;59.40
61398;DHT22;47267;48.130;-2.040;2023-05-10T04:58:12;19.20;59.40
61398;DHT22;47267;48.130;-2.040;2023-05-10T05:00:38;19.30;59.50
61398;DHT22;47267;48.130;-2.040;2023-05-10T05:03:04;19.20;59.40
61398;DHT22;47267;48.130;-2.040;2023-05-10T05:05:30;19.20;59.40
61398;DHT22;47267;48.130;-2.040;2023-05-10T05:07:56;19.20;59.40
61398;DHT22;47267;48.130;-2.040;2023-05-10T05:10:22;19.20;59.40
61398;DHT22;47267;48.130;-2.040;2023-05-10T05:12:47;19.20;59.40
61398;DHT22;47267;48.130;-2.040;2023-05-10T05:15:13;19.20;59.50
61398;DHT22;47267;48.130;-2.040;2023-05-10T05:17:40;19.20;59.50
61398;DHT22;47267;48.130;-2.040;2023-05-10T05:20:06;19.20;59.40
61398;DHT22;47267;48.130;-2.040;2023-05-10T05:22:32;19.20;59.40
61398;DHT22;47267;48.130;-2.040;2023-05-10T05:24:58;19.10;59.40
61398;DHT22;47267;48.130;-2.040;2023-05-10T05:27:24;19.20;59.50
61398;DHT22;47267;48.130;-2.040;2023-05-10T05:29:55;19.10;59.40
61398;DHT22;47267;48.130;-2.040;2023-05-10T05:32:21;19.10;59.40
61398;DHT22;47267;48.130;-2.040;2023-05-10T05:34:47;19.10;59.50
61398;DHT22;47267;48.130;-2.040;2023-05-10T05:37:16;19.10;59.40
61398;DHT22;47267;48.130;-2.040;2023-05-10T05:39:43;19.10;59.40
61398;DHT22;47267;48.130;-2.040;2023-05-10T05:42:09;19.10;59.50
61398;DHT22;47267;48.130;-2.040;2023-05-10T05:44:35;19.10;59.50
61398;DHT22;47267;48.130;-2.040;2023-05-10T05:47:01;19.10;59.50
61398;DHT22;47267;48.130;-2.040;2023-05-10T05:49:27;19.10;59.50
61398;DHT22;47267;48.130;-2.040;2023-05-10T05:51:52;19.10;59.50
61398;DHT22;47267;48.130;-2.040;2023-05-10T05:54:18;19.10;59.50
61398;DHT22;47267;48.130;-2.040;2023-05-10T05:56:44;19.10;59.60
61398;DHT22;47267;48.130;-2.040;2023-05-10T05:59:12;19.10;59.60
61398;DHT22;47267;48.130;-2.040;2023-05-10T06:01:38;19.10;59.60
61398;DHT22;47267;48.130;-2.040;2023-05-10T06:04:04;19.10;59.60
61398;DHT22;47267;48.130;-2.040;2023-05-10T06:06:29;19.10;59.70
61398;DHT22;47267;48.130;-2.040;2023-05-10T06:08:55;19.10;59.70
61398;DHT22;47267;48.130;-2.040;2023-05-10T06:11:21;19.10;59.70
61398;DHT22;47267;48.130;-2.040;2023-05-10T06:13:47;19.00;59.70
61398;DHT22;47267;48.130;-2.040;2023-05-10T06:16:13;19.00;59.70
61398;DHT22;47267;48.130;-2.040;2023-05-10T06:18:39;19.00;59.70
61398;DHT22;47267;48.130;-2.040;2023-05-10T06:21:04;19.00;59.70
61398;DHT22;47267;48.130;-2.040;2023-05-10T06:23:30;19.00;59.80
61398;DHT22;47267;48.130;-2.040;2023-05-10T06:25:56;19.00;59.80
61398;DHT22;47267;48.130;-2.040;2023-05-10T06:28:21;19.00;59.80
61398;DHT22;47267;48.130;-2.040;2023-05-10T06:30:47;19.00;59.80
61398;DHT22;47267;48.130;-2.040;2023-05-10T06:33:13;19.00;59.80
61398;DHT22;47267;48.130;-2.040;2023-05-10T06:35:39;19.00;59.80
61398;DHT22;47267;48.130;-2.040;2023-05-10T06:38:04;19.00;59.80
61398;DHT22;47267;48.130;-2.040;2023-05-10T06:40:30;19.00;59.90
61398;DHT22;47267;48.130;-2.040;2023-05-10T06:42:56;19.00;59.90
61398;DHT22;47267;48.130;-2.040;2023-05-10T06:45:21;19.00;59.90
61398;DHT22;47267;48.130;-2.040;2023-05-10T06:47:47;19.00;59.90
61398;DHT22;47267;48.130;-2.040;2023-05-10T06:50:13;19.00;59.90
61398;DHT22;47267;48.130;-2.040;2023-05-10T06:52:39;19.00;59.90
61398;DHT22;47267;48.130;-2.040;2023-05-10T06:55:05;19.00;60.00
61398;DHT22;47267;48.130;-2.040;2023-05-10T06:57:31;19.00;59.90
61398;DHT22;47267;48.130;-2.040;2023-05-10T06:59:58;19.00;59.90
61398;DHT22;47267;48.130;-2.040;2023-05-10T07:02:23;19.00;60.00
61398;DHT22;47267;48.130;-2.040;2023-05-10T07:04:49;19.00;60.00
61398;DHT22;47267;48.130;-2.040;2023-05-10T07:07:17;19.00;60.00
61398;DHT22;47267;48.130;-2.040;2023-05-10T07:09:42;19.00;60.00
61398;DHT22;47267;48.130;-2.040;2023-05-10T07:12:08;19.00;60.00
61398;DHT22;47267;48.130;-2.040;2023-05-10T07:14:34;19.00;60.00
61398;DHT22;47267;48.130;-2.040;2023-05-10T07:16:59;19.00;60.00
61398;DHT22;47267;48.130;-2.040;2023-05-10T07:19:25;18.90;60.00
61398;DHT22;47267;48.130;-2.040;2023-05-10T07:21:51;19.00;60.10
61398;DHT22;47267;48.130;-2.040;2023-05-10T07:24:16;18.90;60.00
61398;DHT22;47267;48.130;-2.040;2023-05-10T07:26:43;19.00;60.10
61398;DHT22;47267;48.130;-2.040;2023-05-10T07:29:08;18.90;60.00
61398;DHT22;47267;48.130;-2.040;2023-05-10T07:31:34;18.90;60.00
61398;DHT22;47267;48.130;-2.040;2023-05-10T07:34:00;18.90;60.10
61398;DHT22;47267;48.130;-2.040;2023-05-10T07:36:25;18.90;60.00
61398;DHT22;47267;48.130;-2.040;2023-05-10T07:38:51;18.90;60.10
61398;DHT22;47267;48.130;-2.040;2023-05-10T07:41:17;18.90;60.10
61398;DHT22;47267;48.130;-2.040;2023-05-10T07:43:43;18.90;60.10
61398;DHT22;47267;48.130;-2.040;2023-05-10T07:46:09;18.90;60.10
61398;DHT22;47267;48.130;-2.040;2023-05-10T07:48:36;18.90;60.10
61398;DHT22;47267;48.130;-2.040;2023-05-10T07:51:02;18.90;60.10
61398;DHT22;47267;48.130;-2.040;2023-05-10T07:53:28;18.90;60.10
61398;DHT22;47267;48.130;-2.040;2023-05-10T07:55:56;18.90;60.10
61398;DHT22;47267;48.130;-2.040;2023-05-10T07:58:23;18.90;60.20
61398;DHT22;47267;48.130;-2.040;2023-05-10T08:00:49;18.90;60.10
61398;DHT22;47267;48.130;-2.040;2023-05-10T08:03:14;18.90;60.20
61398;DHT22;47267;48.130;-2.040;2023-05-10T08:05:40;18.90;60.20
61398;DHT22;47267;48.130;-2.040;2023-05-10T08:08:06;18.90;60.20
61398;DHT22;47267;48.130;-2.040;2023-05-10T08:10:32;18.90;60.20
61398;DHT22;47267;48.130;-2.040;2023-05-10T08:12:57;18.90;60.20
61398;DHT22;47267;48.130;-2.040;2023-05-10T08:15:24;18.90;60.20
61398;DHT22;47267;48.130;-2.040;2023-05-10T08:17:51;18.90;60.20
61398;DHT22;47267;48.130;-2.040;2023-05-10T08:20:17;18.90;60.20
61398;DHT22;47267;48.130;-2.040;2023-05-10T08:22:45;18.90;60.20
61398;DHT22;47267;48.130;-2.040;2023-05-10T08:25:11;18.90;60.20
61398;DHT22;47267;48.130;-2.040;2023-05-10T08:27:36;18.90;60.30
61398;DHT22;47267;48.130;-2.040;2023-05-10T08:30:02;18.90;60.20
61398;DHT22;47267;48.130;-2.040;2023-05-10T08:32:28;18.90;60.20
61398;DHT22;47267;48.130;-2.040;2023-05-10T08:34:54;18.90;60.20
61398;DHT22;47267;48.130;-2.040;2023-05-10T08:37:22;18.90;60.20
61398;DHT22;47267;48.130;-2.040;2023-05-10T08:39:48;18.90;60.30
61398;DHT22;47267;48.130;-2.040;2023-05-10T08:42:16;18.90;60.30
61398;DHT22;47267;48.130;-2.040;2023-05-10T08:44:45;18.90;60.30
61398;DHT22;47267;48.130;-2.040;2023-05-10T08:47:15;18.90;60.30
61398;DHT22;47267;48.130;-2.040;2023-05-10T08:49:42;18.90;60.30
61398;DHT22;47267;48.130;-2.040;2023-05-10T08:52:10;18.80;60.20
61398;DHT22;47267;48.130;-2.040;2023-05-10T08:54:36;18.90;60.30
61398;DHT22;47267;48.130;-2.040;2023-05-10T08:57:03;18.80;60.20
61398;DHT22;47267;48.130;-2.040;2023-05-10T08:59:29;18.80;60.20
61398;DHT22;47267;48.130;-2.040;2023-05-10T09:01:57;18.80;60.30
61398;DHT22;47267;48.130;-2.040;2023-05-10T09:04:24;18.90;60.90
61398;DHT22;47267;48.130;-2.040;2023-05-10T09:06:50;18.80;60.30
61398;DHT22;47267;48.130;-2.040;2023-05-10T09:09:17;18.90;60.30
61398;DHT22;47267;48.130;-2.040;2023-05-10T09:11:43;18.90;60.30
61398;DHT22;47267;48.130;-2.040;2023-05-10T09:14:10;18.90;60.30
61398;DHT22;47267;48.130;-2.040;2023-05-10T09:16:37;18.80;60.30
61398;DHT22;47267;48.130;-2.040;2023-05-10T09:19:03;18.90;60.30
61398;DHT22;47267;48.130;-2.040;2023-05-10T09:21:30;18.90;60.30
61398;DHT22;47267;48.130;-2.040;2023-05-10T09:23:56;18.80;60.30
61398;DHT22;47267;48.130;-2.040;2023-05-10T09:26:23;18.80;60.30
61398;DHT22;47267;48.130;-2.040;2023-05-10T09:28:56;18.90;60.40
61398;DHT22;47267;48.130;-2.040;2023-05-10T09:31:22;18.90;60.40
61398;DHT22;47267;48.130;-2.040;2023-05-10T09:33:49;18.90;60.40
61398;DHT22;47267;48.130;-2.040;2023-05-10T09:36:16;18.90;60.40
61398;DHT22;47267;48.130;-2.040;2023-05-10T09:38:49;18.90;60.40
61398;DHT22;47267;48.130;-2.040;2023-05-10T09:41:23;18.90;60.40
61398;DHT22;47267;48.130;-2.040;2023-05-10T09:43:49;18.90;60.40
61398;DHT22;47267;48.130;-2.040;2023-05-10T09:46:16;18.90;60.40
61398;DHT22;47267;48.130;-2.040;2023-05-10T09:48:44;18.90;60.40
61398;DHT22;47267;48.130;-2.040;2023-05-10T09:51:09;18.90;60.40
61398;DHT22;47267;48.130;-2.040;2023-05-10T09:53:36;18.90;60.40
61398;DHT22;47267;48.130;-2.040;2023-05-10T09:56:01;18.90;60.40
61398;DHT22;47267;48.130;-2.040;2023-05-10T09:58:27;18.90;60.50
61398;DHT22;47267;48.130;-2.040;2023-05-10T10:00:53;18.90;60.40
61398;DHT22;47267;48.130;-2.040;2023-05-10T10:03:21;18.90;60.50
61398;DHT22;47267;48.130;-2.040;2023-05-10T10:05:47;18.90;60.50
61398;DHT22;47267;48.130;-2.040;2023-05-10T10:08:14;18.90;60.50
61398;DHT22;47267;48.130;-2.040;2023-05-10T10:10:40;18.90;60.50
61398;DHT22;47267;48.130;-2.040;2023-05-10T10:13:07;18.90;60.50
61398;DHT22;47267;48.130;-2.040;2023-05-10T10:15:33;18.90;60.50
61398;DHT22;47267;48.130;-2.040;2023-05-10T10:17:59;18.90;60.50
61398;DHT22;47267;48.130;-2.040;2023-05-10T10:20:26;18.90;60.50
61398;DHT22;47267;48.130;-2.040;2023-05-10T10:22:53;18.90;60.50
61398;DHT22;47267;48.130;-2.040;2023-05-10T10:25:20;18.90;60.50
61398;DHT22;47267;48.130;-2.040;2023-05-10T10:30:41;18.90;60.50
61398;DHT22;47267;48.130;-2.040;2023-05-10T10:35:58;18.90;60.50
61398;DHT22;47267;48.130;-2.040;2023-05-10T10:38:25;18.90;60.50
61398;DHT22;47267;48.130;-2.040;2023-05-10T10:41:10;18.90;60.50
61398;DHT22;47267;48.130;-2.040;2023-05-10T10:43:37;18.90;60.50
61398;DHT22;47267;48.130;-2.040;2023-05-10T10:48:37;18.90;60.60
61398;DHT22;47267;48.130;-2.040;2023-05-10T10:51:03;18.90;60.60
61398;DHT22;47267;48.130;-2.040;2023-05-10T10:53:29;18.90;60.60
61398;DHT22;47267;48.130;-2.040;2023-05-10T10:56:07;18.90;60.60
61398;DHT22;47267;48.130;-2.040;2023-05-10T10:58:35;18.90;60.60
61398;DHT22;47267;48.130;-2.040;2023-05-10T11:01:14;19.00;60.70
61398;DHT22;47267;48.130;-2.040;2023-05-10T11:03:54;19.00;60.60
61398;DHT22;47267;48.130;-2.040;2023-05-10T11:06:29;19.00;60.60
61398;DHT22;47267;48.130;-2.040;2023-05-10T11:08:55;19.00;60.60
61398;DHT22;47267;48.130;-2.040;2023-05-10T11:11:20;19.00;60.60
61398;DHT22;47267;48.130;-2.040;2023-05-10T11:13:48;19.00;60.60
61398;DHT22;47267;48.130;-2.040;2023-05-10T11:16:21;19.00;60.60
61398;DHT22;47267;48.130;-2.040;2023-05-10T11:18:59;19.00;60.70
61398;DHT22;47267;48.130;-2.040;2023-05-10T11:21:27;19.00;60.70
61398;DHT22;47267;48.130;-2.040;2023-05-10T11:23:57;19.00;60.60
61398;DHT22;47267;48.130;-2.040;2023-05-10T11:26:24;19.00;60.70
61398;DHT22;47267;48.130;-2.040;2023-05-10T11:28:53;19.00;60.70
61398;DHT22;47267;48.130;-2.040;2023-05-10T11:31:21;19.00;60.60
61398;DHT22;47267;48.130;-2.040;2023-05-10T11:33:51;19.00;60.70
61398;DHT22;47267;48.130;-2.040;2023-05-10T11:36:22;19.00;60.70
61398;DHT22;47267;48.130;-2.040;2023-05-10T11:38:48;19.00;60.60
61398;DHT22;47267;48.130;-2.040;2023-05-10T11:41:16;19.00;60.60
61398;DHT22;47267;48.130;-2.040;2023-05-10T11:43:42;19.00;60.60
61398;DHT22;47267;48.130;-2.040;2023-05-10T11:46:10;19.00;60.70
61398;DHT22;47267;48.130;-2.040;2023-05-10T11:48:38;19.00;60.60
61398;DHT22;47267;48.130;-2.040;2023-05-10T11:51:03;19.00;60.60
61398;DHT22;47267;48.130;-2.040;2023-05-10T11:53:33;19.10;60.70
61398;DHT22;47267;48.130;-2.040;2023-05-10T11:56:09;19.10;60.70
61398;DHT22;47267;48.130;-2.040;2023-05-10T11:58:36;19.10;60.70
61398;DHT22;47267;48.130;-2.040;2023-05-10T12:01:04;19.10;60.70
61398;DHT22;47267;48.130;-2.040;2023-05-10T12:03:30;19.10;60.70
61398;DHT22;47267;48.130;-2.040;2023-05-10T12:05:57;19.10;60.70
61398;DHT22;47267;48.130;-2.040;2023-05-10T12:08:25;19.10;60.70
61398;DHT22;47267;48.130;-2.040;2023-05-10T12:10:51;19.10;60.70
61398;DHT22;47267;48.130;-2.040;2023-05-10T12:13:19;19.10;60.70
61398;DHT22;47267;48.130;-2.040;2023-05-10T12:15:46;19.10;60.80
61398;DHT22;47267;48.130;-2.040;2023-05-10T12:18:13;19.10;60.80
61398;DHT22;47267;48.130;-2.040;2023-05-10T12:20:39;19.10;60.80
61398;DHT22;47267;48.130;-2.040;2023-05-10T12:23:07;19.10;60.80
61398;DHT22;47267;48.130;-2.040;2023-05-10T12:25:34;19.10;60.80
61398;DHT22;47267;48.130;-2.040;2023-05-10T12:28:03;19.10;60.80
61398;DHT22;47267;48.130;-2.040;2023-05-10T12:30:31;19.10;60.80
61398;DHT22;47267;48.130;-2.040;2023-05-10T12:35:33;19.20;60.80
61398;DHT22;47267;48.130;-2.040;2023-05-10T12:37:59;19.10;60.80
61398;DHT22;47267;48.130;-2.040;2023-05-10T12:40:25;19.10;60.80
61398;DHT22;47267;48.130;-2.040;2023-05-10T12:42:51;19.20;60.90
61398;DHT22;47267;48.130;-2.040;2023-05-10T12:45:18;19.20;60.90
61398;DHT22;47267;48.130;-2.040;2023-05-10T12:47:43;19.20;60.80
61398;DHT22;47267;48.130;-2.040;2023-05-10T12:50:09;19.20;60.80
61398;DHT22;47267;48.130;-2.040;2023-05-10T12:52:35;19.20;60.90
61398;DHT22;47267;48.130;-2.040;2023-05-10T12:55:01;19.20;60.90
61398;DHT22;47267;48.130;-2.040;2023-05-10T12:57:28;19.20;60.90
61398;DHT22;47267;48.130;-2.040;2023-05-10T12:59:54;19.20;60.90
61398;DHT22;47267;48.130;-2.040;2023-05-10T13:02:20;19.20;60.90
61398;DHT22;47267;48.130;-2.040;2023-05-10T13:04:48;19.20;60.90
61398;DHT22;47267;48.130;-2.040;2023-05-10T13:07:14;19.20;60.90
61398;DHT22;47267;48.130;-2.040;2023-05-10T13:09:40;19.20;60.90
61398;DHT22;47267;48.130;-2.040;2023-05-10T13:12:05;19.20;60.90
61398;DHT22;47267;48.130;-2.040;2023-05-10T13:14:31;19.20;61.50
61398;DHT22;47267;48.130;-2.040;2023-05-10T13:16:57;19.20;60.90
61398;DHT22;47267;48.130;-2.040;2023-05-10T13:19:23;19.20;60.90
61398;DHT22;47267;48.130;-2.040;2023-05-10T13:21:48;19.20;60.90
61398;DHT22;47267;48.130;-2.040;2023-05-10T13:24:14;19.20;60.90
61398;DHT22;47267;48.130;-2.040;2023-05-10T13:26:41;19.20;60.90
61398;DHT22;47267;48.130;-2.040;2023-05-10T13:29:07;19.20;60.90
61398;DHT22;47267;48.130;-2.040;2023-05-10T13:31:33;19.20;60.90
61398;DHT22;47267;48.130;-2.040;2023-05-10T13:33:59;19.20;60.90
61398;DHT22;47267;48.130;-2.040;2023-05-10T13:36:25;19.20;60.90
61398;DHT22;47267;48.130;-2.040;2023-05-10T13:38:52;19.20;60.90
61398;DHT22;47267;48.130;-2.040;2023-05-10T13:41:17;19.20;60.90
61398;DHT22;47267;48.130;-2.040;2023-05-10T13:43:43;19.20;60.90
61398;DHT22;47267;48.130;-2.040;2023-05-10T13:46:09;19.20;60.90
61398;DHT22;47267;48.130;-2.040;2023-05-10T13:48:35;19.20;60.90
61398;DHT22;47267;48.130;-2.040;2023-05-10T13:51:02;19.20;60.90
61398;DHT22;47267;48.130;-2.040;2023-05-10T13:53:28;19.20;60.90
61398;DHT22;47267;48.130;-2.040;2023-05-10T13:55:54;19.20;60.90
61398;DHT22;47267;48.130;-2.040;2023-05-10T13:58:19;19.20;60.90
61398;DHT22;47267;48.130;-2.040;2023-05-10T14:00:45;19.20;60.90
61398;DHT22;47267;48.130;-2.040;2023-05-10T14:03:11;19.20;60.90
61398;DHT22;47267;48.130;-2.040;2023-05-10T14:05:36;19.20;60.90
61398;DHT22;47267;48.130;-2.040;2023-05-10T14:08:02;19.30;60.90
61398;DHT22;47267;48.130;-2.040;2023-05-10T14:10:28;19.20;60.90
61398;DHT22;47267;48.130;-2.040;2023-05-10T14:12:53;19.30;60.90
61398;DHT22;47267;48.130;-2.040;2023-05-10T14:15:19;19.20;61.50
61398;DHT22;47267;48.130;-2.040;2023-05-10T14:17:45;19.30;60.90
61398;DHT22;47267;48.130;-2.040;2023-05-10T14:20:11;19.20;60.90
61398;DHT22;47267;48.130;-2.040;2023-05-10T14:22:36;19.30;61.00
61398;DHT22;47267;48.130;-2.040;2023-05-10T14:25:02;19.30;60.90
61398;DHT22;47267;48.130;-2.040;2023-05-10T14:27:28;19.20;60.90
61398;DHT22;47267;48.130;-2.040;2023-05-10T14:29:54;19.30;61.00
61398;DHT22;47267;48.130;-2.040;2023-05-10T14:32:20;19.30;60.90
61398;DHT22;47267;48.130;-2.040;2023-05-10T14:34:46;19.20;60.90
61398;DHT22;47267;48.130;-2.040;2023-05-10T14:37:13;19.30;61.00
61398;DHT22;47267;48.130;-2.040;2023-05-10T14:39:38;19.30;60.90
61398;DHT22;47267;48.130;-2.040;2023-05-10T14:42:04;19.30;61.00
61398;DHT22;47267;48.130;-2.040;2023-05-10T14:44:30;19.30;60.90
61398;DHT22;47267;48.130;-2.040;2023-05-10T14:46:56;19.30;61.00
61398;DHT22;47267;48.130;-2.040;2023-05-10T14:49:22;19.30;60.90
61398;DHT22;47267;48.130;-2.040;2023-05-10T14:51:50;19.30;60.90
61398;DHT22;47267;48.130;-2.040;2023-05-10T14:54:15;19.30;60.90
61398;DHT22;47267;48.130;-2.040;2023-05-10T14:56:41;19.30;61.00
61398;DHT22;47267;48.130;-2.040;2023-05-10T14:59:07;19.30;60.90
61398;DHT22;47267;48.130;-2.040;2023-05-10T15:01:33;19.30;60.90
61398;DHT22;47267;48.130;-2.040;2023-05-10T15:04:03;19.30;60.90
61398;DHT22;47267;48.130;-2.040;2023-05-10T15:06:32;19.30;60.90
61398;DHT22;47267;48.130;-2.040;2023-05-10T15:08:58;19.30;60.90
61398;DHT22;47267;48.130;-2.040;2023-05-10T15:11:23;19.30;60.90
61398;DHT22;47267;48.130;-2.040;2023-05-10T15:13:49;19.30;60.90
61398;DHT22;47267;48.130;-2.040;2023-05-10T15:16:15;19.30;61.00
61398;DHT22;47267;48.130;-2.040;2023-05-10T15:18:40;19.30;60.90
61398;DHT22;47267;48.130;-2.040;2023-05-10T15:21:06;19.30;60.90
61398;DHT22;47267;48.130;-2.040;2023-05-10T15:23:32;19.30;60.90
61398;DHT22;47267;48.130;-2.040;2023-05-10T15:25:57;19.30;61.00
61398;DHT22;47267;48.130;-2.040;2023-05-10T15:28:23;19.30;61.50
61398;DHT22;47267;48.130;-2.040;2023-05-10T15:30:49;19.30;60.90
61398;DHT22;47267;48.130;-2.040;2023-05-10T15:33:14;19.30;60.90
61398;DHT22;47267;48.130;-2.040;2023-05-10T15:35:40;19.30;60.90
61398;DHT22;47267;48.130;-2.040;2023-05-10T15:38:06;19.30;60.90
61398;DHT22;47267;48.130;-2.040;2023-05-10T15:40:32;19.40;61.00
61398;DHT22;47267;48.130;-2.040;2023-05-10T15:42:58;19.30;60.90
61398;DHT22;47267;48.130;-2.040;2023-05-10T15:45:23;19.40;61.00
61398;DHT22;47267;48.130;-2.040;2023-05-10T15:47:49;19.30;60.90